sensor_id;sensor_type;location;lat;lon;timestamp;pressure;altitude;pressure_sealevel;temperature;humidity
7834;BME280;3962;42.696;23.354;2022-10-16T00:02:13;95871.09;;;9.83;86.63
7834;BME280;3962;42.696;23.354;2022-10-16T00:04:39;95873.50;;;9.86;86.69
7834;BME280;3962;42.696;23.354;2022-10-16T00:07:06;95874.59;;;9.83;86.62
7834;BME280;3962;42.696;23.354;2022-10-16T00:09:34;95878.34;;;9.81;86.72
7834;BME280;3962;42.696;23.354;2022-10-16T00:12:01;95874.53;;;9.74;87.01
7834;BME280;3962;42.696;23.354;2022-10-16T00:14:29;95873.81;;;9.72;87.47
7834;BME280;3962;42.696;23.354;2022-10-16T00:16:55;95880.81;;;9.73;87.65
7834;BME280;3962;42.696;23.354;2022-10-16T00:19:22;95886.59;;;9.78;87.20
7834;BME280;3962;42.696;23.354;2022-10-16T00:21:49;95886.59;;;9.78;87.14
7834;BME280;3962;42.696;23.354;2022-10-16T00:24:16;95885.16;;;9.74;87.34
7834;BME280;3962;42.696;23.354;2022-10-16T00:26:44;95885.91;;;9.76;87.45
7834;BME280;3962;42.696;23.354;2022-10-16T00:29:11;95887.97;;;9.72;87.62
7834;BME280;3962;42.696;23.354;2022-10-16T00:31:38;95893.13;;;9.74;88.03
7834;BME280;3962;42.696;23.354;2022-10-16T00:34:04;95896.75;;;9.73;87.70
7834;BME280;3962;42.696;23.354;2022-10-16T00:36:31;95892.31;;;9.73;87.69
7834;BME280;3962;42.696;23.354;2022-10-16T00:38:58;95902.94;;;9.73;87.48
7834;BME280;3962;42.696;23.354;2022-10-16T00:41:26;95901.38;;;9.71;87.86
7834;BME280;3962;42.696;23.354;2022-10-16T00:43:56;95896.88;;;9.71;87.83
7834;BME280;3962;42.696;23.354;2022-10-16T00:46:25;95889.75;;;9.72;87.91
7834;BME280;3962;42.696;23.354;2022-10-16T00:48:56;95893.06;;;9.64;87.45
7834;BME280;3962;42.696;23.354;2022-10-16T00:51:30;95884.28;;;9.53;87.93
7834;BME280;3962;42.696;23.354;2022-10-16T00:53:58;95887.81;;;9.42;88.12
7834;BME280;3962;42.696;23.354;2022-10-16T00:56:25;95880.84;;;9.41;87.25
7834;BME280;3962;42.696;23.354;2022-10-16T00:58:52;95881.94;;;9.39;87.22
7834;BME280;3962;42.696;23.354;2022-10-16T01:01:21;95889.41;;;9.34;87.10
7834;BME280;3962;42.696;23.354;2022-10-16T01:03:47;95902.69;;;9.34;87.25
7834;BME280;3962;42.696;23.354;2022-10-16T01:06:28;95900.69;;;9.26;87.21
7834;BME280;3962;42.696;23.354;2022-10-16T01:09:12;95902.84;;;9.21;87.93
7834;BME280;3962;42.696;23.354;2022-10-16T01:11:45;95907.91;;;9.24;87.92
7834;BME280;3962;42.696;23.354;2022-10-16T01:14:21;95897.41;;;9.23;88.15
7834;BME280;3962;42.696;23.354;2022-10-16T01:16:53;95908.03;;;9.23;88.09
7834;BME280;3962;42.696;23.354;2022-10-16T01:19:31;95898.38;;;9.22;88.10
7834;BME280;3962;42.696;23.354;2022-10-16T01:22:03;95891.41;;;9.21;88.46
7834;BME280;3962;42.696;23.354;2022-10-16T01:24:37;95885.59;;;9.16;88.66
7834;BME280;3962;42.696;23.354;2022-10-16T01:27:11;95883.22;;;9.13;88.61
7834;BME280;3962;42.696;23.354;2022-10-16T01:29:44;95890.91;;;9.16;89.04
7834;BME280;3962;42.696;23.354;2022-10-16T01:32:18;95888.25;;;9.16;88.96
7834;BME280;3962;42.696;23.354;2022-10-16T01:34:49;95896.72;;;9.21;89.59
7834;BME280;3962;42.696;23.354;2022-10-16T01:37:33;95890.88;;;9.27;88.99
7834;BME280;3962;42.696;23.354;2022-10-16T01:40:05;95887.78;;;9.22;88.12
7834;BME280;3962;42.696;23.354;2022-10-16T01:42:36;95886.56;;;9.15;87.98
7834;BME280;3962;42.696;23.354;2022-10-16T01:45:07;95886.59;;;9.04;88.44
7834;BME280;3962;42.696;23.354;2022-10-16T01:47:37;95898.09;;;8.93;88.91
7834;BME280;3962;42.696;23.354;2022-10-16T01:50:06;95895.06;;;8.87;88.97
7834;BME280;3962;42.696;23.354;2022-10-16T01:52:37;95903.63;;;8.79;89.50
7834;BME280;3962;42.696;23.354;2022-10-16T01:55:07;95903.75;;;8.78;89.50
7834;BME280;3962;42.696;23.354;2022-10-16T01:57:38;95910.41;;;8.72;90.06
7834;BME280;3962;42.696;23.354;2022-10-16T02:00:10;95906.16;;;8.70;89.85
7834;BME280;3962;42.696;23.354;2022-10-16T02:02:39;95911.47;;;8.70;90.33
7834;BME280;3962;42.696;23.354;2022-10-16T02:05:11;95913.31;;;8.69;90.58
7834;BME280;3962;42.696;23.354;2022-10-16T02:07:39;95919.44;;;8.70;90.53
7834;BME280;3962;42.696;23.354;2022-10-16T02:10:07;95911.84;;;8.65;90.50
7834;BME280;3962;42.696;23.354;2022-10-16T02:12:38;95914.38;;;8.67;90.20
7834;BME280;3962;42.696;23.354;2022-10-16T02:15:08;95926.06;;;8.64;90.78
7834;BME280;3962;42.696;23.354;2022-10-16T02:17:35;95916.78;;;8.59;90.43
7834;BME280;3962;42.696;23.354;2022-10-16T02:20:04;95927.41;;;8.59;90.04
7834;BME280;3962;42.696;23.354;2022-10-16T02:22:33;95929.44;;;8.55;90.91
7834;BME280;3962;42.696;23.354;2022-10-16T02:25:05;95930.78;;;8.50;90.75
7834;BME280;3962;42.696;23.354;2022-10-16T02:27:35;95928.69;;;8.42;90.88
7834;BME280;3962;42.696;23.354;2022-10-16T02:30:08;95931.00;;;8.36;90.57
7834;BME280;3962;42.696;23.354;2022-10-16T02:32:41;95933.75;;;8.34;91.10
7834;BME280;3962;42.696;23.354;2022-10-16T02:35:09;95929.78;;;8.29;90.89
7834;BME280;3962;42.696;23.354;2022-10-16T02:37:38;95933.75;;;8.34;91.09
7834;BME280;3962;42.696;23.354;2022-10-16T02:40:07;95929.41;;;8.33;90.83
7834;BME280;3962;42.696;23.354;2022-10-16T02:42:35;95931.91;;;8.24;90.43
7834;BME280;3962;42.696;23.354;2022-10-16T02:45:03;95937.22;;;8.24;90.71
7834;BME280;3962;42.696;23.354;2022-10-16T02:47:31;95939.25;;;8.20;91.09
7834;BME280;3962;42.696;23.354;2022-10-16T02:49:58;95943.81;;;8.18;91.39
7834;BME280;3962;42.696;23.354;2022-10-16T02:52:25;95942.69;;;8.10;91.05
7834;BME280;3962;42.696;23.354;2022-10-16T02:54:52;95952.72;;;8.06;91.04
7834;BME280;3962;42.696;23.354;2022-10-16T02:57:18;95950.38;;;8.02;90.81
7834;BME280;3962;42.696;23.354;2022-10-16T02:59:45;95956.25;;;7.94;91.14
7834;BME280;3962;42.696;23.354;2022-10-16T03:02:12;95955.88;;;7.88;91.52
7834;BME280;3962;42.696;23.354;2022-10-16T03:04:40;95946.00;;;7.79;91.78
7834;BME280;3962;42.696;23.354;2022-10-16T03:07:07;95950.31;;;7.80;91.76
7834;BME280;3962;42.696;23.354;2022-10-16T03:09:34;95952.59;;;7.50;92.27
7834;BME280;3962;42.696;23.354;2022-10-16T03:12:01;95939.56;;;7.47;93.78
7834;BME280;3962;42.696;23.354;2022-10-16T03:14:27;95958.22;;;7.45;93.26
7834;BME280;3962;42.696;23.354;2022-10-16T03:16:54;95955.00;;;7.53;94.13
7834;BME280;3962;42.696;23.354;2022-10-16T03:19:21;95956.69;;;7.54;93.91
7834;BME280;3962;42.696;23.354;2022-10-16T03:21:49;95955.56;;;7.45;93.00
7834;BME280;3962;42.696;23.354;2022-10-16T03:24:16;95955.69;;;7.44;93.49
7834;BME280;3962;42.696;23.354;2022-10-16T03:26:42;95969.59;;;7.35;94.61
7834;BME280;3962;42.696;23.354;2022-10-16T03:29:09;95959.81;;;7.48;93.42
7834;BME280;3962;42.696;23.354;2022-10-16T03:31:36;95960.16;;;7.43;94.10
7834;BME280;3962;42.696;23.354;2022-10-16T03:34:02;95967.63;;;7.49;94.03
7834;BME280;3962;42.696;23.354;2022-10-16T03:36:29;95965.09;;;7.48;92.87
7834;BME280;3962;42.696;23.354;2022-10-16T03:38:58;95957.94;;;7.37;93.24
7834;BME280;3962;42.696;23.354;2022-10-16T03:41:24;95965.41;;;7.20;93.86
7834;BME280;3962;42.696;23.354;2022-10-16T03:43:51;95952.22;;;7.31;94.21
7834;BME280;3962;42.696;23.354;2022-10-16T03:46:18;95960.63;;;7.48;94.68
7834;BME280;3962;42.696;23.354;2022-10-16T03:48:45;95957.53;;;7.54;93.45
7834;BME280;3962;42.696;23.354;2022-10-16T03:51:11;95956.97;;;7.62;93.08
7834;BME280;3962;42.696;23.354;2022-10-16T03:53:38;95958.53;;;7.64;92.68
7834;BME280;3962;42.696;23.354;2022-10-16T03:56:06;95956.25;;;7.60;92.90
7834;BME280;3962;42.696;23.354;2022-10-16T03:58:33;95952.75;;;7.59;92.28
7834;BME280;3962;42.696;23.354;2022-10-16T04:01:00;95944.81;;;7.59;92.73
7834;BME280;3962;42.696;23.354;2022-10-16T04:03:27;95955.28;;;7.61;92.15
7834;BME280;3962;42.696;23.354;2022-10-16T04:05:53;95946.00;;;7.55;92.39
7834;BME280;3962;42.696;23.354;2022-10-16T04:08:20;95945.88;;;7.57;92.07
7834;BME280;3962;42.696;23.354;2022-10-16T04:10:47;95957.72;;;7.64;91.49
7834;BME280;3962;42.696;23.354;2022-10-16T04:13:15;95953.69;;;7.58;92.27
7834;BME280;3962;42.696;23.354;2022-10-16T04:15:42;95959.16;;;7.68;92.28
7834;BME280;3962;42.696;23.354;2022-10-16T04:18:10;95961.59;;;7.71;91.52
7834;BME280;3962;42.696;23.354;2022-10-16T04:20:37;95964.00;;;7.74;92.21
7834;BME280;3962;42.696;23.354;2022-10-16T04:23:04;95954.50;;;7.71;92.31
7834;BME280;3962;42.696;23.354;2022-10-16T04:25:31;95960.84;;;7.69;91.62
7834;BME280;3962;42.696;23.354;2022-10-16T04:27:57;95967.03;;;7.80;92.02
7834;BME280;3962;42.696;23.354;2022-10-16T04:30:25;95971.84;;;7.75;90.85
7834;BME280;3962;42.696;23.354;2022-10-16T04:32:52;95968.00;;;7.79;90.48
7834;BME280;3962;42.696;23.354;2022-10-16T04:35:20;95972.97;;;7.84;90.37
7834;BME280;3962;42.696;23.354;2022-10-16T04:37:47;95971.91;;;7.86;91.03
7834;BME280;3962;42.696;23.354;2022-10-16T04:40:14;95974.66;;;7.85;90.59
7834;BME280;3962;42.696;23.354;2022-10-16T04:42:41;95977.88;;;7.77;90.15
7834;BME280;3962;42.696;23.354;2022-10-16T04:45:08;95976.91;;;7.78;90.54
7834;BME280;3962;42.696;23.354;2022-10-16T04:47:36;95980.44;;;7.79;90.32
7834;BME280;3962;42.696;23.354;2022-10-16T04:50:04;95990.41;;;7.75;90.23
7834;BME280;3962;42.696;23.354;2022-10-16T04:52:31;95992.88;;;7.66;90.49
7834;BME280;3962;42.696;23.354;2022-10-16T04:54:58;95987.28;;;7.58;90.10
7834;BME280;3962;42.696;23.354;2022-10-16T04:57:27;95994.72;;;7.53;90.65
7834;BME280;3962;42.696;23.354;2022-10-16T04:59:54;95999.06;;;7.54;91.65
7834;BME280;3962;42.696;23.354;2022-10-16T05:02:21;96003.72;;;7.50;91.86
7834;BME280;3962;42.696;23.354;2022-10-16T05:04:49;96000.59;;;7.45;91.26
7834;BME280;3962;42.696;23.354;2022-10-16T05:07:16;96004.91;;;7.46;90.83
7834;BME280;3962;42.696;23.354;2022-10-16T05:09:42;96005.75;;;7.47;91.86
7834;BME280;3962;42.696;23.354;2022-10-16T05:12:09;96008.47;;;7.58;91.46
7834;BME280;3962;42.696;23.354;2022-10-16T05:14:36;96009.31;;;7.58;91.70
7834;BME280;3962;42.696;23.354;2022-10-16T05:17:03;96005.59;;;7.61;91.21
7834;BME280;3962;42.696;23.354;2022-10-16T05:19:30;96000.28;;;7.61;91.43
7834;BME280;3962;42.696;23.354;2022-10-16T05:21:58;96014.00;;;7.78;90.96
7834;BME280;3962;42.696;23.354;2022-10-16T05:24:25;96023.81;;;7.89;90.08
7834;BME280;3962;42.696;23.354;2022-10-16T05:26:52;96017.78;;;7.87;89.94
7834;BME280;3962;42.696;23.354;2022-10-16T05:29:19;96025.13;;;7.83;89.97
7834;BME280;3962;42.696;23.354;2022-10-16T05:31:45;96014.09;;;7.77;90.04
7834;BME280;3962;42.696;23.354;2022-10-16T05:34:12;96018.22;;;7.81;89.80
7834;BME280;3962;42.696;23.354;2022-10-16T05:36:39;96021.94;;;7.78;90.70
7834;BME280;3962;42.696;23.354;2022-10-16T05:39:07;96021.00;;;7.79;90.84
7834;BME280;3962;42.696;23.354;2022-10-16T05:41:34;96027.00;;;7.81;90.35
7834;BME280;3962;42.696;23.354;2022-10-16T05:44:04;96022.00;;;7.89;90.53
7834;BME280;3962;42.696;23.354;2022-10-16T05:46:30;96021.63;;;8.06;89.64
7834;BME280;3962;42.696;23.354;2022-10-16T05:48:57;96029.22;;;8.11;89.47
7834;BME280;3962;42.696;23.354;2022-10-16T05:51:24;96039.34;;;8.17;89.61
7834;BME280;3962;42.696;23.354;2022-10-16T05:53:52;96032.47;;;8.14;89.00
7834;BME280;3962;42.696;23.354;2022-10-16T05:56:20;96037.34;;;8.20;89.20
7834;BME280;3962;42.696;23.354;2022-10-16T05:58:47;96044.72;;;8.28;89.32
7834;BME280;3962;42.696;23.354;2022-10-16T06:01:15;96046.53;;;8.27;88.83
7834;BME280;3962;42.696;23.354;2022-10-16T06:03:42;96045.56;;;8.28;88.42
7834;BME280;3962;42.696;23.354;2022-10-16T06:06:11;96054.00;;;8.22;88.67
7834;BME280;3962;42.696;23.354;2022-10-16T06:08:38;96066.22;;;8.36;88.55
7834;BME280;3962;42.696;23.354;2022-10-16T06:11:06;96062.16;;;8.43;88.07
7834;BME280;3962;42.696;23.354;2022-10-16T06:13:35;96062.97;;;8.43;87.99
7834;BME280;3962;42.696;23.354;2022-10-16T06:16:03;96064.44;;;8.47;88.84
7834;BME280;3962;42.696;23.354;2022-10-16T06:18:30;96064.91;;;8.52;87.84
7834;BME280;3962;42.696;23.354;2022-10-16T06:20:57;96075.59;;;8.63;88.14
7834;BME280;3962;42.696;23.354;2022-10-16T06:23:24;96075.72;;;8.73;87.79
7834;BME280;3962;42.696;23.354;2022-10-16T06:25:51;96071.75;;;8.78;87.18
7834;BME280;3962;42.696;23.354;2022-10-16T06:28:18;96074.41;;;8.78;86.63
7834;BME280;3962;42.696;23.354;2022-10-16T06:30:46;96081.66;;;8.87;86.96
7834;BME280;3962;42.696;23.354;2022-10-16T06:33:13;96076.84;;;8.92;86.36
7834;BME280;3962;42.696;23.354;2022-10-16T06:35:40;96082.53;;;8.99;86.21
7834;BME280;3962;42.696;23.354;2022-10-16T06:38:06;96084.72;;;9.05;85.91
7834;BME280;3962;42.696;23.354;2022-10-16T06:40:33;96088.09;;;9.07;85.89
7834;BME280;3962;42.696;23.354;2022-10-16T06:43:00;96084.84;;;9.36;88.63
7834;BME280;3962;42.696;23.354;2022-10-16T06:45:27;96090.19;;;10.23;89.51
7834;BME280;3962;42.696;23.354;2022-10-16T06:47:55;96094.13;;;10.39;84.52
7834;BME280;3962;42.696;23.354;2022-10-16T06:50:21;96095.19;;;10.05;81.50
7834;BME280;3962;42.696;23.354;2022-10-16T06:52:49;96106.59;;;10.39;85.22
7834;BME280;3962;42.696;23.354;2022-10-16T06:55:15;96103.56;;;10.32;82.23
7834;BME280;3962;42.696;23.354;2022-10-16T06:57:42;96106.38;;;10.31;81.13
7834;BME280;3962;42.696;23.354;2022-10-16T07:00:10;96109.25;;;10.39;81.02
7834;BME280;3962;42.696;23.354;2022-10-16T07:02:36;96113.38;;;10.32;79.93
7834;BME280;3962;42.696;23.354;2022-10-16T07:05:05;96106.50;;;10.18;80.60
7834;BME280;3962;42.696;23.354;2022-10-16T07:07:32;96108.94;;;10.21;81.11
7834;BME280;3962;42.696;23.354;2022-10-16T07:09:59;96104.75;;;10.08;81.17
7834;BME280;3962;42.696;23.354;2022-10-16T07:12:26;96099.66;;;10.05;81.83
7834;BME280;3962;42.696;23.354;2022-10-16T07:14:53;96112.91;;;10.27;81.89
7834;BME280;3962;42.696;23.354;2022-10-16T07:17:21;96119.28;;;10.35;80.98
7834;BME280;3962;42.696;23.354;2022-10-16T07:19:47;96114.03;;;10.45;80.75
7834;BME280;3962;42.696;23.354;2022-10-16T07:22:18;96121.34;;;10.63;80.76
7834;BME280;3962;42.696;23.354;2022-10-16T07:24:45;96111.69;;;10.62;79.35
7834;BME280;3962;42.696;23.354;2022-10-16T07:27:11;96115.78;;;10.66;79.69
7834;BME280;3962;42.696;23.354;2022-10-16T07:29:38;96120.19;;;10.77;79.72
7834;BME280;3962;42.696;23.354;2022-10-16T07:32:05;96121.25;;;10.85;79.65
7834;BME280;3962;42.696;23.354;2022-10-16T07:34:32;96120.28;;;11.06;78.78
7834;BME280;3962;42.696;23.354;2022-10-16T07:36:59;96121.19;;;11.16;77.87
7834;BME280;3962;42.696;23.354;2022-10-16T07:39:27;96121.75;;;11.20;78.35
7834;BME280;3962;42.696;23.354;2022-10-16T07:41:53;96116.00;;;11.15;77.99
7834;BME280;3962;42.696;23.354;2022-10-16T07:44:20;96127.16;;;11.29;77.88
7834;BME280;3962;42.696;23.354;2022-10-16T07:46:47;96117.09;;;11.33;78.68
7834;BME280;3962;42.696;23.354;2022-10-16T07:49:14;96121.19;;;11.57;78.57
7834;BME280;3962;42.696;23.354;2022-10-16T07:51:41;96114.06;;;11.67;77.47
7834;BME280;3962;42.696;23.354;2022-10-16T07:54:08;96114.63;;;12.10;77.50
7834;BME280;3962;42.696;23.354;2022-10-16T07:56:36;96127.72;;;13.65;71.09
7834;BME280;3962;42.696;23.354;2022-10-16T07:59:03;96130.91;;;14.69;67.01
7834;BME280;3962;42.696;23.354;2022-10-16T08:01:30;96132.66;;;16.06;62.91
7834;BME280;3962;42.696;23.354;2022-10-16T08:03:56;96129.28;;;16.79;60.15
7834;BME280;3962;42.696;23.354;2022-10-16T08:06:24;96130.19;;;17.28;58.56
7834;BME280;3962;42.696;23.354;2022-10-16T08:08:51;96131.59;;;17.56;56.96
7834;BME280;3962;42.696;23.354;2022-10-16T08:11:18;96130.00;;;17.93;56.36
7834;BME280;3962;42.696;23.354;2022-10-16T08:13:46;96135.94;;;18.43;54.95
7834;BME280;3962;42.696;23.354;2022-10-16T08:16:13;96135.31;;;18.72;53.48
7834;BME280;3962;42.696;23.354;2022-10-16T08:18:40;96132.91;;;18.46;53.80
7834;BME280;3962;42.696;23.354;2022-10-16T08:21:12;96133.47;;;18.72;52.75
7834;BME280;3962;42.696;23.354;2022-10-16T08:23:39;96131.53;;;19.11;52.23
7834;BME280;3962;42.696;23.354;2022-10-16T08:26:07;96124.03;;;19.51;50.91
7834;BME280;3962;42.696;23.354;2022-10-16T08:28:35;96127.19;;;19.32;51.31
7834;BME280;3962;42.696;23.354;2022-10-16T08:31:08;96119.91;;;19.10;51.27
7834;BME280;3962;42.696;23.354;2022-10-16T08:33:35;96119.81;;;19.26;51.10
7834;BME280;3962;42.696;23.354;2022-10-16T08:36:03;96118.16;;;19.17;51.50
7834;BME280;3962;42.696;23.354;2022-10-16T08:38:30;96112.56;;;19.04;50.77
7834;BME280;3962;42.696;23.354;2022-10-16T08:41:08;96113.94;;;18.70;51.91
7834;BME280;3962;42.696;23.354;2022-10-16T08:43:53;96117.06;;;18.82;51.60
7834;BME280;3962;42.696;23.354;2022-10-16T08:46:35;96121.63;;;19.03;51.54
7834;BME280;3962;42.696;23.354;2022-10-16T08:49:08;96126.47;;;18.85;50.20
7834;BME280;3962;42.696;23.354;2022-10-16T08:51:37;96125.00;;;18.75;50.34
7834;BME280;3962;42.696;23.354;2022-10-16T08:54:05;96128.25;;;18.71;49.39
7834;BME280;3962;42.696;23.354;2022-10-16T08:56:32;96127.78;;;18.59;49.64
7834;BME280;3962;42.696;23.354;2022-10-16T08:58:59;96125.81;;;18.53;49.18
7834;BME280;3962;42.696;23.354;2022-10-16T09:01:35;96127.50;;;18.54;48.47
7834;BME280;3962;42.696;23.354;2022-10-16T09:07:13;96127.06;;;18.95;47.20
7834;BME280;3962;42.696;23.354;2022-10-16T09:09:53;96125.81;;;18.53;47.62
7834;BME280;3962;42.696;23.354;2022-10-16T09:12:27;96123.53;;;18.73;47.24
7834;BME280;3962;42.696;23.354;2022-10-16T09:15:10;96119.31;;;19.00;47.25
7834;BME280;3962;42.696;23.354;2022-10-16T09:17:49;96122.00;;;19.00;45.68
7834;BME280;3962;42.696;23.354;2022-10-16T09:20:26;96114.59;;;18.72;46.09
7834;BME280;3962;42.696;23.354;2022-10-16T09:23:08;96121.38;;;18.60;46.82
7834;BME280;3962;42.696;23.354;2022-10-16T09:25:38;96115.09;;;18.29;46.52
7834;BME280;3962;42.696;23.354;2022-10-16T09:28:08;96118.00;;;18.20;47.51
7834;BME280;3962;42.696;23.354;2022-10-16T09:30:35;96122.72;;;18.18;47.06
7834;BME280;3962;42.696;23.354;2022-10-16T09:33:04;96113.00;;;17.93;47.33
7834;BME280;3962;42.696;23.354;2022-10-16T09:35:35;96120.09;;;17.86;47.88
7834;BME280;3962;42.696;23.354;2022-10-16T09:38:03;96116.97;;;18.21;47.34
7834;BME280;3962;42.696;23.354;2022-10-16T09:40:31;96114.53;;;17.95;47.92
7834;BME280;3962;42.696;23.354;2022-10-16T09:43:03;96110.31;;;17.85;48.64
7834;BME280;3962;42.696;23.354;2022-10-16T09:45:33;96116.44;;;17.63;48.10
7834;BME280;3962;42.696;23.354;2022-10-16T09:48:01;96113.25;;;17.51;48.68
7834;BME280;3962;42.696;23.354;2022-10-16T09:50:38;96108.00;;;17.74;48.69
7834;BME280;3962;42.696;23.354;2022-10-16T09:53:08;96102.56;;;17.98;48.45
7834;BME280;3962;42.696;23.354;2022-10-16T09:55:48;96099.41;;;17.78;48.58
7834;BME280;3962;42.696;23.354;2022-10-16T09:58:15;96094.38;;;17.75;49.21
7834;BME280;3962;42.696;23.354;2022-10-16T10:00:48;96103.66;;;17.57;49.34
7834;BME280;3962;42.696;23.354;2022-10-16T10:03:36;96095.56;;;17.65;49.20
7834;BME280;3962;42.696;23.354;2022-10-16T10:06:14;96094.72;;;17.64;49.59
7834;BME280;3962;42.696;23.354;2022-10-16T10:09:04;96102.81;;;17.40;50.57
7834;BME280;3962;42.696;23.354;2022-10-16T10:11:47;96088.72;;;17.38;50.45
7834;BME280;3962;42.696;23.354;2022-10-16T10:14:20;96089.56;;;17.47;50.35
7834;BME280;3962;42.696;23.354;2022-10-16T10:16:48;96085.47;;;17.75;50.15
7834;BME280;3962;42.696;23.354;2022-10-16T10:19:17;96091.47;;;17.93;49.92
7834;BME280;3962;42.696;23.354;2022-10-16T10:21:45;96083.66;;;18.14;49.81
7834;BME280;3962;42.696;23.354;2022-10-16T10:24:14;96080.06;;;17.83;50.13
7834;BME280;3962;42.696;23.354;2022-10-16T10:26:52;96078.91;;;17.69;50.22
7834;BME280;3962;42.696;23.354;2022-10-16T10:29:40;96079.41;;;17.73;50.34
7834;BME280;3962;42.696;23.354;2022-10-16T10:32:21;96078.53;;;17.88;50.19
7834;BME280;3962;42.696;23.354;2022-10-16T10:35:01;96076.22;;;17.69;50.20
7834;BME280;3962;42.696;23.354;2022-10-16T10:37:47;96065.25;;;17.87;49.58
7834;BME280;3962;42.696;23.354;2022-10-16T10:40:28;96069.28;;;17.83;48.23
7834;BME280;3962;42.696;23.354;2022-10-16T10:42:59;96063.31;;;17.57;49.29
7834;BME280;3962;42.696;23.354;2022-10-16T10:45:38;96060.59;;;17.65;48.79
7834;BME280;3962;42.696;23.354;2022-10-16T10:48:32;96054.56;;;17.63;49.49
7834;BME280;3962;42.696;23.354;2022-10-16T10:51:13;96052.16;;;17.68;49.19
7834;BME280;3962;42.696;23.354;2022-10-16T10:53:53;96057.41;;;17.53;49.24
7834;BME280;3962;42.696;23.354;2022-10-16T10:56:41;96051.69;;;17.32;50.31
7834;BME280;3962;42.696;23.354;2022-10-16T10:59:22;96052.34;;;17.26;49.87
7834;BME280;3962;42.696;23.354;2022-10-16T11:01:56;96050.03;;;17.47;48.26
7834;BME280;3962;42.696;23.354;2022-10-16T11:04:49;96049.84;;;17.57;47.93
7834;BME280;3962;42.696;23.354;2022-10-16T11:07:24;96045.31;;;17.49;50.48
7834;BME280;3962;42.696;23.354;2022-10-16T11:09:56;96040.44;;;17.45;49.74
7834;BME280;3962;42.696;23.354;2022-10-16T11:12:26;96035.75;;;17.47;48.03
7834;BME280;3962;42.696;23.354;2022-10-16T11:14:56;96034.00;;;17.62;48.70
7834;BME280;3962;42.696;23.354;2022-10-16T11:17:27;96034.31;;;17.75;48.29
7834;BME280;3962;42.696;23.354;2022-10-16T11:20:00;96029.94;;;17.82;48.53
7834;BME280;3962;42.696;23.354;2022-10-16T11:22:33;96026.53;;;17.96;48.35
7834;BME280;3962;42.696;23.354;2022-10-16T11:25:11;96029.44;;;18.17;48.29
7834;BME280;3962;42.696;23.354;2022-10-16T11:27:43;96024.09;;;18.47;47.56
7834;BME280;3962;42.696;23.354;2022-10-16T11:30:15;96021.22;;;18.49;47.73
7834;BME280;3962;42.696;23.354;2022-10-16T11:32:53;96022.66;;;18.37;46.64
7834;BME280;3962;42.696;23.354;2022-10-16T11:35:24;96021.22;;;18.49;46.48
7834;BME280;3962;42.696;23.354;2022-10-16T11:37:55;96027.88;;;18.38;46.77
7834;BME280;3962;42.696;23.354;2022-10-16T11:40:29;96013.50;;;18.46;46.76
7834;BME280;3962;42.696;23.354;2022-10-16T11:43:04;96023.56;;;18.52;47.02
7834;BME280;3962;42.696;23.354;2022-10-16T11:45:40;96032.22;;;18.70;49.83
7834;BME280;3962;42.696;23.354;2022-10-16T11:48:17;96022.56;;;18.75;45.86
7834;BME280;3962;42.696;23.354;2022-10-16T11:50:50;96033.19;;;18.77;46.12
7834;BME280;3962;42.696;23.354;2022-10-16T11:53:26;96031.22;;;18.93;45.22
7834;BME280;3962;42.696;23.354;2022-10-16T11:55:55;96024.50;;;18.89;45.18
7834;BME280;3962;42.696;23.354;2022-10-16T11:58:26;96022.69;;;19.04;45.54
7834;BME280;3962;42.696;23.354;2022-10-16T12:01:03;96024.72;;;19.61;48.77
7834;BME280;3962;42.696;23.354;2022-10-16T12:03:41;96023.13;;;19.67;44.06
7834;BME280;3962;42.696;23.354;2022-10-16T12:06:28;96021.97;;;19.47;44.88
7834;BME280;3962;42.696;23.354;2022-10-16T12:08:58;96023.00;;;19.31;45.07
7834;BME280;3962;42.696;23.354;2022-10-16T12:11:36;96024.75;;;19.39;45.34
7834;BME280;3962;42.696;23.354;2022-10-16T12:14:07;96024.97;;;19.37;44.88
7834;BME280;3962;42.696;23.354;2022-10-16T12:16:37;96022.91;;;19.39;44.89
7834;BME280;3962;42.696;23.354;2022-10-16T12:19:12;96022.38;;;19.58;45.06
7834;BME280;3962;42.696;23.354;2022-10-16T12:21:39;96018.22;;;19.70;44.48
7834;BME280;3962;42.696;23.354;2022-10-16T12:24:06;96021.50;;;19.95;44.23
7834;BME280;3962;42.696;23.354;2022-10-16T12:26:48;96026.66;;;20.54;46.48
7834;BME280;3962;42.696;23.354;2022-10-16T12:29:32;96018.22;;;20.64;42.74
7834;BME280;3962;42.696;23.354;2022-10-16T12:31:59;96022.44;;;20.16;42.31
7834;BME280;3962;42.696;23.354;2022-10-16T12:34:37;96014.59;;;20.07;43.27
7834;BME280;3962;42.696;23.354;2022-10-16T12:37:11;96018.97;;;20.08;42.90
7834;BME280;3962;42.696;23.354;2022-10-16T12:39:39;96026.22;;;20.36;43.09
7834;BME280;3962;42.696;23.354;2022-10-16T12:42:20;96028.34;;;20.41;42.45
7834;BME280;3962;42.696;23.354;2022-10-16T12:44:47;96026.16;;;20.65;42.62
7834;BME280;3962;42.696;23.354;2022-10-16T12:47:20;96032.38;;;20.80;42.40
7834;BME280;3962;42.696;23.354;2022-10-16T12:49:49;96023.25;;;21.23;41.35
7834;BME280;3962;42.696;23.354;2022-10-16T12:52:26;96032.59;;;20.64;41.46
7834;BME280;3962;42.696;23.354;2022-10-16T12:54:56;96014.97;;;20.04;42.66
7834;BME280;3962;42.696;23.354;2022-10-16T12:57:39;96002.47;;;20.03;42.31
7834;BME280;3962;42.696;23.354;2022-10-16T13:00:16;96027.38;;;19.98;42.35
7834;BME280;3962;42.696;23.354;2022-10-16T13:03:30;96029.47;;;20.46;42.00
7834;BME280;3962;42.696;23.354;2022-10-16T13:06:10;96031.84;;;20.35;40.42
7834;BME280;3962;42.696;23.354;2022-10-16T13:08:50;96032.75;;;20.77;40.19
7834;BME280;3962;42.696;23.354;2022-10-16T13:11:25;96034.50;;;20.85;40.33
7834;BME280;3962;42.696;23.354;2022-10-16T13:14:10;96030.94;;;20.84;40.23
7834;BME280;3962;42.696;23.354;2022-10-16T13:16:50;96033.63;;;20.63;41.21
7834;BME280;3962;42.696;23.354;2022-10-16T13:19:26;96030.53;;;20.31;41.69
7834;BME280;3962;42.696;23.354;2022-10-16T13:22:01;96025.78;;;20.18;41.88
7834;BME280;3962;42.696;23.354;2022-10-16T13:24:46;96031.06;;;20.76;41.51
7834;BME280;3962;42.696;23.354;2022-10-16T13:27:22;96033.19;;;20.95;39.78
7834;BME280;3962;42.696;23.354;2022-10-16T13:29:59;96032.75;;;20.42;40.85
7834;BME280;3962;42.696;23.354;2022-10-16T13:32:27;96024.03;;;20.61;40.29
7834;BME280;3962;42.696;23.354;2022-10-16T13:34:54;96035.31;;;20.64;39.79
7834;BME280;3962;42.696;23.354;2022-10-16T13:37:23;96026.09;;;20.59;40.81
7834;BME280;3962;42.696;23.354;2022-10-16T13:39:50;96034.53;;;20.35;38.50